Terminal Aerodrome Forecast
Issued by NWS

Home | Current Version | Previous Version | Text Only | Print | Product List | Glossary On
Versions: 1 2 3 4 5 6 7 8 9 10 11 12 13 14
000
FTUS45 KTFX 172320
TAFLWT
TAF
KLWT 172320Z 1800/1824 24015G25KT P6SM FEW150 SCT250
     FM180400 28020G35KT P6SM FEW150 SCT250 WS020/27050KT
     FM181000 25015KT P6SM FEW150 SCT250=

USA.gov is the U.S. government's official web portal to all federal, state and local government web resources and services.